sensor_id;sensor_type;location;lat;lon;timestamp;P1;durP1;ratioP1;P2;durP2;ratioP2
32321;SDS011;61553;48.994;8.940;2023-03-23T00:00:37;2.20;;;0.90;;
32321;SDS011;61553;48.994;8.940;2023-03-23T00:03:03;2.38;;;1.10;;
32321;SDS011;61553;48.994;8.940;2023-03-23T00:05:29;4.05;;;0.80;;
32321;SDS011;61553;48.994;8.940;2023-03-23T00:07:55;2.83;;;1.13;;
32321;SDS011;61553;48.994;8.940;2023-03-23T00:10:21;2.97;;;0.80;;
32321;SDS011;61553;48.994;8.940;2023-03-23T00:12:46;4.60;;;1.02;;
32321;SDS011;61553;48.994;8.940;2023-03-23T00:15:14;2.13;;;0.93;;
32321;SDS011;61553;48.994;8.940;2023-03-23T00:17:41;1.83;;;0.90;;
32321;SDS011;61553;48.994;8.940;2023-03-23T00:20:10;2.85;;;1.05;;
32321;SDS011;61553;48.994;8.940;2023-03-23T00:22:37;1.90;;;0.70;;
32321;SDS011;61553;48.994;8.940;2023-03-23T00:25:04;2.60;;;1.10;;
32321;SDS011;61553;48.994;8.940;2023-03-23T00:27:30;4.93;;;1.27;;
32321;SDS011;61553;48.994;8.940;2023-03-23T00:29:56;2.70;;;1.00;;
32321;SDS011;61553;48.994;8.940;2023-03-23T00:32:22;3.67;;;1.08;;
32321;SDS011;61553;48.994;8.940;2023-03-23T00:34:54;3.22;;;0.88;;
32321;SDS011;61553;48.994;8.940;2023-03-23T00:37:20;2.35;;;1.10;;
32321;SDS011;61553;48.994;8.940;2023-03-23T00:39:46;2.25;;;1.10;;
32321;SDS011;61553;48.994;8.940;2023-03-23T00:42:13;2.80;;;1.10;;
32321;SDS011;61553;48.994;8.940;2023-03-23T00:44:40;2.28;;;1.05;;
32321;SDS011;61553;48.994;8.940;2023-03-23T00:47:06;4.38;;;1.20;;
32321;SDS011;61553;48.994;8.940;2023-03-23T00:49:33;4.53;;;1.08;;
32321;SDS011;61553;48.994;8.940;2023-03-23T00:52:01;1.25;;;0.80;;
32321;SDS011;61553;48.994;8.940;2023-03-23T00:54:28;1.65;;;0.90;;
32321;SDS011;61553;48.994;8.940;2023-03-23T00:56:55;2.65;;;1.13;;
32321;SDS011;61553;48.994;8.940;2023-03-23T00:59:21;3.50;;;1.05;;
32321;SDS011;61553;48.994;8.940;2023-03-23T01:01:47;1.98;;;0.90;;
32321;SDS011;61553;48.994;8.940;2023-03-23T01:04:13;2.42;;;1.08;;
32321;SDS011;61553;48.994;8.940;2023-03-23T01:06:40;3.65;;;1.10;;
32321;SDS011;61553;48.994;8.940;2023-03-23T01:09:08;3.25;;;1.30;;
32321;SDS011;61553;48.994;8.940;2023-03-23T01:11:36;2.55;;;1.05;;
32321;SDS011;61553;48.994;8.940;2023-03-23T01:14:03;1.40;;;0.77;;
32321;SDS011;61553;48.994;8.940;2023-03-23T01:16:30;9.13;;;2.88;;
32321;SDS011;61553;48.994;8.940;2023-03-23T01:18:55;5.55;;;2.13;;
32321;SDS011;61553;48.994;8.940;2023-03-23T01:21:21;9.48;;;2.53;;
32321;SDS011;61553;48.994;8.940;2023-03-23T01:23:47;7.05;;;2.30;;
32321;SDS011;61553;48.994;8.940;2023-03-23T01:26:18;5.18;;;1.55;;
32321;SDS011;61553;48.994;8.940;2023-03-23T01:28:45;5.63;;;1.48;;
32321;SDS011;61553;48.994;8.940;2023-03-23T01:31:13;1.88;;;1.05;;
32321;SDS011;61553;48.994;8.940;2023-03-23T01:33:41;2.78;;;1.20;;
32321;SDS011;61553;48.994;8.940;2023-03-23T01:36:10;4.10;;;1.40;;
32321;SDS011;61553;48.994;8.940;2023-03-23T01:38:39;5.47;;;1.40;;
32321;SDS011;61553;48.994;8.940;2023-03-23T01:41:07;3.38;;;1.17;;
32321;SDS011;61553;48.994;8.940;2023-03-23T01:43:32;2.30;;;1.13;;
32321;SDS011;61553;48.994;8.940;2023-03-23T01:45:58;3.55;;;1.20;;
32321;SDS011;61553;48.994;8.940;2023-03-23T01:51:02;3.70;;;1.63;;
32321;SDS011;61553;48.994;8.940;2023-03-23T01:53:34;2.83;;;1.33;;
32321;SDS011;61553;48.994;8.940;2023-03-23T01:56:07;3.30;;;1.55;;
32321;SDS011;61553;48.994;8.940;2023-03-23T01:58:36;3.42;;;1.42;;
32321;SDS011;61553;48.994;8.940;2023-03-23T02:01:07;3.30;;;1.42;;
32321;SDS011;61553;48.994;8.940;2023-03-23T02:03:42;4.57;;;1.42;;
32321;SDS011;61553;48.994;8.940;2023-03-23T02:06:11;2.80;;;1.20;;
32321;SDS011;61553;48.994;8.940;2023-03-23T02:08:37;2.38;;;1.20;;
32321;SDS011;61553;48.994;8.940;2023-03-23T02:11:11;1.50;;;0.85;;
32321;SDS011;61553;48.994;8.940;2023-03-23T02:13:39;2.83;;;1.20;;
32321;SDS011;61553;48.994;8.940;2023-03-23T02:18:49;3.78;;;1.20;;
32321;SDS011;61553;48.994;8.940;2023-03-23T02:22:20;3.00;;;1.15;;
32321;SDS011;61553;48.994;8.940;2023-03-23T02:32:54;3.75;;;1.10;;
32321;SDS011;61553;48.994;8.940;2023-03-23T02:35:52;2.30;;;1.20;;
32321;SDS011;61553;48.994;8.940;2023-03-23T02:38:35;2.97;;;1.52;;
32321;SDS011;61553;48.994;8.940;2023-03-23T02:41:22;3.35;;;1.10;;
32321;SDS011;61553;48.994;8.940;2023-03-23T02:43:52;3.92;;;1.05;;
32321;SDS011;61553;48.994;8.940;2023-03-23T02:46:19;4.03;;;1.50;;
32321;SDS011;61553;48.994;8.940;2023-03-23T02:48:47;1.92;;;0.88;;
32321;SDS011;61553;48.994;8.940;2023-03-23T02:51:16;4.85;;;1.45;;
32321;SDS011;61553;48.994;8.940;2023-03-23T02:53:44;2.65;;;1.23;;
32321;SDS011;61553;48.994;8.940;2023-03-23T02:56:11;3.08;;;1.30;;
32321;SDS011;61553;48.994;8.940;2023-03-23T02:58:39;3.35;;;1.42;;
32321;SDS011;61553;48.994;8.940;2023-03-23T03:03:59;2.80;;;1.20;;
32321;SDS011;61553;48.994;8.940;2023-03-23T03:09:03;2.63;;;1.20;;
32321;SDS011;61553;48.994;8.940;2023-03-23T03:11:45;2.58;;;1.42;;
32321;SDS011;61553;48.994;8.940;2023-03-23T03:14:14;2.78;;;1.27;;
32321;SDS011;61553;48.994;8.940;2023-03-23T03:17:00;3.83;;;1.40;;
32321;SDS011;61553;48.994;8.940;2023-03-23T03:19:45;2.72;;;1.15;;
32321;SDS011;61553;48.994;8.940;2023-03-23T03:22:13;2.47;;;1.27;;
32321;SDS011;61553;48.994;8.940;2023-03-23T03:24:40;3.15;;;1.38;;
32321;SDS011;61553;48.994;8.940;2023-03-23T03:27:11;4.38;;;1.42;;
32321;SDS011;61553;48.994;8.940;2023-03-23T03:29:41;4.72;;;1.60;;
32321;SDS011;61553;48.994;8.940;2023-03-23T03:32:15;2.00;;;1.08;;
32321;SDS011;61553;48.994;8.940;2023-03-23T03:34:44;4.63;;;1.85;;
32321;SDS011;61553;48.994;8.940;2023-03-23T03:37:10;4.88;;;1.45;;
32321;SDS011;61553;48.994;8.940;2023-03-23T03:39:37;2.55;;;1.15;;
32321;SDS011;61553;48.994;8.940;2023-03-23T03:42:04;3.53;;;1.30;;
32321;SDS011;61553;48.994;8.940;2023-03-23T03:44:31;2.70;;;1.40;;
32321;SDS011;61553;48.994;8.940;2023-03-23T03:46:57;3.50;;;1.45;;
32321;SDS011;61553;48.994;8.940;2023-03-23T03:49:23;2.42;;;1.35;;
32321;SDS011;61553;48.994;8.940;2023-03-23T03:51:49;3.58;;;1.30;;
32321;SDS011;61553;48.994;8.940;2023-03-23T03:54:15;2.83;;;1.48;;
32321;SDS011;61553;48.994;8.940;2023-03-23T03:56:41;4.95;;;1.50;;
32321;SDS011;61553;48.994;8.940;2023-03-23T03:59:07;2.53;;;1.33;;
32321;SDS011;61553;48.994;8.940;2023-03-23T04:01:34;4.38;;;2.35;;
32321;SDS011;61553;48.994;8.940;2023-03-23T04:04:01;5.80;;;2.00;;
32321;SDS011;61553;48.994;8.940;2023-03-23T04:06:28;4.97;;;2.25;;
32321;SDS011;61553;48.994;8.940;2023-03-23T04:08:56;5.63;;;1.60;;
32321;SDS011;61553;48.994;8.940;2023-03-23T04:11:24;4.82;;;1.90;;
32321;SDS011;61553;48.994;8.940;2023-03-23T04:13:51;2.97;;;1.35;;
32321;SDS011;61553;48.994;8.940;2023-03-23T04:16:17;3.78;;;1.50;;
32321;SDS011;61553;48.994;8.940;2023-03-23T04:18:43;3.05;;;1.30;;
32321;SDS011;61553;48.994;8.940;2023-03-23T04:21:08;3.08;;;1.30;;
32321;SDS011;61553;48.994;8.940;2023-03-23T04:23:34;5.65;;;1.67;;
32321;SDS011;61553;48.994;8.940;2023-03-23T04:26:01;3.88;;;1.52;;
32321;SDS011;61553;48.994;8.940;2023-03-23T04:28:28;4.40;;;1.40;;
32321;SDS011;61553;48.994;8.940;2023-03-23T04:30:58;6.68;;;2.60;;
32321;SDS011;61553;48.994;8.940;2023-03-23T04:33:25;12.35;;;4.95;;
32321;SDS011;61553;48.994;8.940;2023-03-23T04:35:56;48.83;;;19.35;;
32321;SDS011;61553;48.994;8.940;2023-03-23T04:38:26;14.77;;;5.68;;
32321;SDS011;61553;48.994;8.940;2023-03-23T04:40:52;5.70;;;2.80;;
32321;SDS011;61553;48.994;8.940;2023-03-23T04:43:19;3.95;;;1.67;;
32321;SDS011;61553;48.994;8.940;2023-03-23T04:45:46;3.88;;;1.55;;
32321;SDS011;61553;48.994;8.940;2023-03-23T04:48:16;3.75;;;1.60;;
32321;SDS011;61553;48.994;8.940;2023-03-23T04:50:43;4.40;;;1.38;;
32321;SDS011;61553;48.994;8.940;2023-03-23T04:53:09;3.47;;;1.63;;
32321;SDS011;61553;48.994;8.940;2023-03-23T04:55:36;3.75;;;1.30;;
32321;SDS011;61553;48.994;8.940;2023-03-23T04:58:02;3.15;;;1.15;;
32321;SDS011;61553;48.994;8.940;2023-03-23T05:00:35;4.35;;;1.40;;
32321;SDS011;61553;48.994;8.940;2023-03-23T05:03:01;2.78;;;1.35;;
32321;SDS011;61553;48.994;8.940;2023-03-23T05:05:27;3.15;;;1.35;;
32321;SDS011;61553;48.994;8.940;2023-03-23T05:07:55;3.95;;;1.70;;
32321;SDS011;61553;48.994;8.940;2023-03-23T05:10:21;4.70;;;1.60;;
32321;SDS011;61553;48.994;8.940;2023-03-23T05:12:47;4.97;;;1.40;;
32321;SDS011;61553;48.994;8.940;2023-03-23T05:15:14;4.55;;;1.63;;
32321;SDS011;61553;48.994;8.940;2023-03-23T05:17:41;6.70;;;1.77;;
32321;SDS011;61553;48.994;8.940;2023-03-23T05:20:13;7.72;;;2.17;;
32321;SDS011;61553;48.994;8.940;2023-03-23T05:22:43;8.43;;;2.22;;
32321;SDS011;61553;48.994;8.940;2023-03-23T05:25:14;9.50;;;1.98;;
32321;SDS011;61553;48.994;8.940;2023-03-23T05:27:40;7.10;;;1.55;;
32321;SDS011;61553;48.994;8.940;2023-03-23T05:30:13;4.53;;;1.98;;
32321;SDS011;61553;48.994;8.940;2023-03-23T05:32:43;3.67;;;1.63;;
32321;SDS011;61553;48.994;8.940;2023-03-23T05:35:10;6.13;;;1.85;;
32321;SDS011;61553;48.994;8.940;2023-03-23T05:37:37;3.75;;;1.50;;
32321;SDS011;61553;48.994;8.940;2023-03-23T05:40:03;3.10;;;1.50;;
32321;SDS011;61553;48.994;8.940;2023-03-23T05:42:34;4.32;;;1.33;;
32321;SDS011;61553;48.994;8.940;2023-03-23T05:45:01;4.18;;;1.67;;
32321;SDS011;61553;48.994;8.940;2023-03-23T05:47:28;7.80;;;1.55;;
32321;SDS011;61553;48.994;8.940;2023-03-23T05:49:54;5.40;;;1.40;;
32321;SDS011;61553;48.994;8.940;2023-03-23T05:52:20;7.80;;;1.63;;
32321;SDS011;61553;48.994;8.940;2023-03-23T05:54:45;4.68;;;1.45;;
32321;SDS011;61553;48.994;8.940;2023-03-23T05:57:11;3.92;;;1.63;;
32321;SDS011;61553;48.994;8.940;2023-03-23T05:59:37;4.55;;;1.40;;
32321;SDS011;61553;48.994;8.940;2023-03-23T06:02:03;3.85;;;1.50;;
32321;SDS011;61553;48.994;8.940;2023-03-23T06:04:30;4.88;;;1.60;;
32321;SDS011;61553;48.994;8.940;2023-03-23T06:06:58;5.55;;;1.83;;
32321;SDS011;61553;48.994;8.940;2023-03-23T06:09:26;3.40;;;1.45;;
32321;SDS011;61553;48.994;8.940;2023-03-23T06:11:51;10.75;;;4.85;;
32321;SDS011;61553;48.994;8.940;2023-03-23T06:14:17;11.98;;;4.68;;
32321;SDS011;61553;48.994;8.940;2023-03-23T06:16:43;7.53;;;2.72;;
32321;SDS011;61553;48.994;8.940;2023-03-23T06:19:08;6.03;;;2.20;;
32321;SDS011;61553;48.994;8.940;2023-03-23T06:21:34;4.25;;;1.73;;
32321;SDS011;61553;48.994;8.940;2023-03-23T06:24:00;4.90;;;1.75;;
32321;SDS011;61553;48.994;8.940;2023-03-23T06:26:28;3.20;;;1.52;;
32321;SDS011;61553;48.994;8.940;2023-03-23T06:29:01;2.47;;;1.30;;
32321;SDS011;61553;48.994;8.940;2023-03-23T06:31:29;4.93;;;1.45;;
32321;SDS011;61553;48.994;8.940;2023-03-23T06:33:58;3.92;;;1.75;;
32321;SDS011;61553;48.994;8.940;2023-03-23T06:36:24;4.90;;;1.42;;
32321;SDS011;61553;48.994;8.940;2023-03-23T06:38:51;3.17;;;1.42;;
32321;SDS011;61553;48.994;8.940;2023-03-23T06:41:17;4.50;;;1.70;;
32321;SDS011;61553;48.994;8.940;2023-03-23T06:43:42;3.10;;;1.52;;
32321;SDS011;61553;48.994;8.940;2023-03-23T06:46:09;2.58;;;1.30;;
32321;SDS011;61553;48.994;8.940;2023-03-23T06:48:34;3.13;;;1.65;;
32321;SDS011;61553;48.994;8.940;2023-03-23T06:51:00;4.40;;;1.35;;
32321;SDS011;61553;48.994;8.940;2023-03-23T06:53:27;4.53;;;1.65;;
32321;SDS011;61553;48.994;8.940;2023-03-23T06:55:53;3.22;;;1.70;;
32321;SDS011;61553;48.994;8.940;2023-03-23T06:58:18;6.47;;;2.67;;
32321;SDS011;61553;48.994;8.940;2023-03-23T07:00:44;6.68;;;1.95;;
32321;SDS011;61553;48.994;8.940;2023-03-23T07:03:10;7.32;;;2.15;;
32321;SDS011;61553;48.994;8.940;2023-03-23T07:05:36;3.47;;;1.50;;
32321;SDS011;61553;48.994;8.940;2023-03-23T07:08:02;8.95;;;2.10;;
32321;SDS011;61553;48.994;8.940;2023-03-23T07:10:29;3.40;;;1.50;;
32321;SDS011;61553;48.994;8.940;2023-03-23T07:12:55;4.07;;;1.80;;
32321;SDS011;61553;48.994;8.940;2023-03-23T07:15:21;3.22;;;1.63;;
32321;SDS011;61553;48.994;8.940;2023-03-23T07:17:47;3.88;;;1.60;;
32321;SDS011;61553;48.994;8.940;2023-03-23T07:20:13;4.15;;;1.58;;
32321;SDS011;61553;48.994;8.940;2023-03-23T07:22:39;2.88;;;1.40;;
32321;SDS011;61553;48.994;8.940;2023-03-23T07:25:05;4.18;;;1.90;;
32321;SDS011;61553;48.994;8.940;2023-03-23T07:27:32;6.97;;;1.92;;
32321;SDS011;61553;48.994;8.940;2023-03-23T07:29:58;4.55;;;1.85;;
32321;SDS011;61553;48.994;8.940;2023-03-23T07:32:25;4.47;;;1.67;;
32321;SDS011;61553;48.994;8.940;2023-03-23T07:34:50;5.22;;;1.75;;
32321;SDS011;61553;48.994;8.940;2023-03-23T07:37:16;3.33;;;1.30;;
32321;SDS011;61553;48.994;8.940;2023-03-23T07:39:42;2.95;;;1.60;;
32321;SDS011;61553;48.994;8.940;2023-03-23T07:42:08;4.82;;;1.70;;
32321;SDS011;61553;48.994;8.940;2023-03-23T07:44:34;3.53;;;1.42;;
32321;SDS011;61553;48.994;8.940;2023-03-23T07:47:00;4.95;;;1.80;;
32321;SDS011;61553;48.994;8.940;2023-03-23T07:49:26;3.65;;;1.50;;
32321;SDS011;61553;48.994;8.940;2023-03-23T07:51:52;7.72;;;2.90;;
32321;SDS011;61553;48.994;8.940;2023-03-23T07:54:17;5.05;;;1.83;;
32321;SDS011;61553;48.994;8.940;2023-03-23T07:56:43;3.53;;;1.77;;
32321;SDS011;61553;48.994;8.940;2023-03-23T07:59:10;3.42;;;1.85;;
32321;SDS011;61553;48.994;8.940;2023-03-23T08:01:37;4.05;;;1.92;;
32321;SDS011;61553;48.994;8.940;2023-03-23T08:04:03;6.40;;;1.75;;
32321;SDS011;61553;48.994;8.940;2023-03-23T08:06:31;6.90;;;2.40;;
32321;SDS011;61553;48.994;8.940;2023-03-23T08:08:58;6.53;;;2.55;;
32321;SDS011;61553;48.994;8.940;2023-03-23T08:11:24;3.83;;;1.73;;
32321;SDS011;61553;48.994;8.940;2023-03-23T08:13:51;3.58;;;1.83;;
32321;SDS011;61553;48.994;8.940;2023-03-23T08:16:17;3.20;;;1.60;;
32321;SDS011;61553;48.994;8.940;2023-03-23T08:18:44;6.63;;;1.92;;
32321;SDS011;61553;48.994;8.940;2023-03-23T08:21:10;4.80;;;1.83;;
32321;SDS011;61553;48.994;8.940;2023-03-23T08:23:36;11.73;;;1.77;;
32321;SDS011;61553;48.994;8.940;2023-03-23T08:26:03;5.97;;;1.92;;
32321;SDS011;61553;48.994;8.940;2023-03-23T08:28:31;6.43;;;2.30;;
32321;SDS011;61553;48.994;8.940;2023-03-23T08:30:58;3.85;;;1.63;;
32321;SDS011;61553;48.994;8.940;2023-03-23T08:33:24;5.82;;;2.28;;
32321;SDS011;61553;48.994;8.940;2023-03-23T08:35:56;5.10;;;2.10;;
32321;SDS011;61553;48.994;8.940;2023-03-23T08:38:23;7.13;;;1.98;;
32321;SDS011;61553;48.994;8.940;2023-03-23T08:40:49;5.25;;;1.85;;
32321;SDS011;61553;48.994;8.940;2023-03-23T08:43:17;4.43;;;2.20;;
32321;SDS011;61553;48.994;8.940;2023-03-23T08:45:43;5.28;;;2.15;;
32321;SDS011;61553;48.994;8.940;2023-03-23T08:48:08;4.55;;;2.05;;
32321;SDS011;61553;48.994;8.940;2023-03-23T08:50:35;3.40;;;1.80;;
32321;SDS011;61553;48.994;8.940;2023-03-23T08:53:01;4.72;;;2.05;;
32321;SDS011;61553;48.994;8.940;2023-03-23T08:55:28;4.43;;;2.33;;
32321;SDS011;61553;48.994;8.940;2023-03-23T08:57:54;4.72;;;2.00;;
32321;SDS011;61553;48.994;8.940;2023-03-23T09:00:21;6.53;;;2.05;;
32321;SDS011;61553;48.994;8.940;2023-03-23T09:02:49;6.30;;;1.92;;
32321;SDS011;61553;48.994;8.940;2023-03-23T09:05:18;4.03;;;1.80;;
32321;SDS011;61553;48.994;8.940;2023-03-23T09:07:47;3.78;;;1.50;;
32321;SDS011;61553;48.994;8.940;2023-03-23T09:10:14;6.82;;;2.00;;
32321;SDS011;61553;48.994;8.940;2023-03-23T09:12:40;3.53;;;1.70;;
32321;SDS011;61553;48.994;8.940;2023-03-23T09:15:08;5.43;;;1.60;;
32321;SDS011;61553;48.994;8.940;2023-03-23T09:17:40;5.57;;;1.80;;
32321;SDS011;61553;48.994;8.940;2023-03-23T09:20:09;5.25;;;1.80;;
32321;SDS011;61553;48.994;8.940;2023-03-23T09:22:37;5.03;;;1.75;;
32321;SDS011;61553;48.994;8.940;2023-03-23T09:25:05;6.78;;;1.98;;
32321;SDS011;61553;48.994;8.940;2023-03-23T09:27:32;3.95;;;1.73;;
32321;SDS011;61553;48.994;8.940;2023-03-23T09:29:58;4.55;;;1.75;;
32321;SDS011;61553;48.994;8.940;2023-03-23T09:32:23;2.83;;;1.42;;
32321;SDS011;61553;48.994;8.940;2023-03-23T09:34:49;4.65;;;1.50;;
32321;SDS011;61553;48.994;8.940;2023-03-23T09:37:16;3.17;;;1.48;;
32321;SDS011;61553;48.994;8.940;2023-03-23T09:39:42;4.07;;;1.77;;
32321;SDS011;61553;48.994;8.940;2023-03-23T09:42:12;4.82;;;1.90;;
32321;SDS011;61553;48.994;8.940;2023-03-23T09:51:00;3.90;;;2.03;;
32321;SDS011;61553;48.994;8.940;2023-03-23T09:53:34;3.38;;;1.38;;
32321;SDS011;61553;48.994;8.940;2023-03-23T09:56:08;4.25;;;1.42;;
32321;SDS011;61553;48.994;8.940;2023-03-23T09:58:45;3.30;;;1.70;;
32321;SDS011;61553;48.994;8.940;2023-03-23T10:04:12;3.65;;;1.52;;
32321;SDS011;61553;48.994;8.940;2023-03-23T10:06:47;7.05;;;1.85;;
32321;SDS011;61553;48.994;8.940;2023-03-23T10:09:14;3.25;;;1.40;;
32321;SDS011;61553;48.994;8.940;2023-03-23T10:17:50;3.15;;;1.40;;
32321;SDS011;61553;48.994;8.940;2023-03-23T10:20:35;2.25;;;1.25;;
32321;SDS011;61553;48.994;8.940;2023-03-23T10:23:13;2.95;;;1.27;;
32321;SDS011;61553;48.994;8.940;2023-03-23T10:26:00;5.30;;;1.80;;
32321;SDS011;61553;48.994;8.940;2023-03-23T10:31:01;3.55;;;1.45;;
32321;SDS011;61553;48.994;8.940;2023-03-23T10:33:44;4.60;;;1.65;;
32321;SDS011;61553;48.994;8.940;2023-03-23T10:36:31;3.15;;;1.50;;
32321;SDS011;61553;48.994;8.940;2023-03-23T10:41:31;3.42;;;1.30;;
32321;SDS011;61553;48.994;8.940;2023-03-23T10:43:57;1.90;;;1.10;;
32321;SDS011;61553;48.994;8.940;2023-03-23T10:46:43;2.42;;;1.23;;
32321;SDS011;61553;48.994;8.940;2023-03-23T10:49:14;2.22;;;1.45;;
32321;SDS011;61553;48.994;8.940;2023-03-23T10:51:50;4.95;;;1.42;;
32321;SDS011;61553;48.994;8.940;2023-03-23T10:54:32;3.28;;;1.35;;
32321;SDS011;61553;48.994;8.940;2023-03-23T10:57:21;3.50;;;1.60;;
32321;SDS011;61553;48.994;8.940;2023-03-23T10:59:57;3.20;;;1.20;;
32321;SDS011;61553;48.994;8.940;2023-03-23T11:02:24;5.60;;;1.52;;
32321;SDS011;61553;48.994;8.940;2023-03-23T11:04:55;2.92;;;1.40;;
32321;SDS011;61553;48.994;8.940;2023-03-23T11:07:26;4.05;;;1.42;;
32321;SDS011;61553;48.994;8.940;2023-03-23T11:09:56;3.70;;;1.67;;
32321;SDS011;61553;48.994;8.940;2023-03-23T11:12:32;4.45;;;1.42;;
32321;SDS011;61553;48.994;8.940;2023-03-23T11:17:54;6.45;;;2.92;;
32321;SDS011;61553;48.994;8.940;2023-03-23T11:20:21;5.13;;;1.80;;
32321;SDS011;61553;48.994;8.940;2023-03-23T11:22:47;4.50;;;1.50;;
32321;SDS011;61553;48.994;8.940;2023-03-23T11:25:13;3.88;;;1.80;;
32321;SDS011;61553;48.994;8.940;2023-03-23T11:27:39;4.10;;;2.22;;
32321;SDS011;61553;48.994;8.940;2023-03-23T11:30:10;6.85;;;2.97;;
32321;SDS011;61553;48.994;8.940;2023-03-23T11:32:46;5.70;;;1.38;;
32321;SDS011;61553;48.994;8.940;2023-03-23T11:35:30;2.92;;;1.33;;
32321;SDS011;61553;48.994;8.940;2023-03-23T11:37:56;3.33;;;1.52;;
32321;SDS011;61553;48.994;8.940;2023-03-23T11:40:25;4.15;;;1.67;;
32321;SDS011;61553;48.994;8.940;2023-03-23T11:43:17;3.40;;;1.40;;
32321;SDS011;61553;48.994;8.940;2023-03-23T11:48:55;5.15;;;1.48;;
32321;SDS011;61553;48.994;8.940;2023-03-23T11:57:10;2.85;;;1.40;;
32321;SDS011;61553;48.994;8.940;2023-03-23T11:59:38;3.58;;;1.70;;
32321;SDS011;61553;48.994;8.940;2023-03-23T12:12:54;3.25;;;1.52;;
32321;SDS011;61553;48.994;8.940;2023-03-23T12:16:02;4.18;;;2.08;;
32321;SDS011;61553;48.994;8.940;2023-03-23T12:27:00;5.05;;;1.80;;
32321;SDS011;61553;48.994;8.940;2023-03-23T12:43:13;3.40;;;1.75;;
32321;SDS011;61553;48.994;8.940;2023-03-23T12:48:43;5.30;;;1.70;;
32321;SDS011;61553;48.994;8.940;2023-03-23T12:51:26;4.35;;;1.98;;
32321;SDS011;61553;48.994;8.940;2023-03-23T12:56:29;4.65;;;1.92;;
32321;SDS011;61553;48.994;8.940;2023-03-23T13:02:43;4.93;;;2.00;;
32321;SDS011;61553;48.994;8.940;2023-03-23T13:05:06;3.45;;;2.10;;
32321;SDS011;61553;48.994;8.940;2023-03-23T13:07:36;4.13;;;1.80;;
32321;SDS011;61553;48.994;8.940;2023-03-23T13:10:17;5.78;;;1.70;;
32321;SDS011;61553;48.994;8.940;2023-03-23T13:12:47;4.25;;;1.90;;
32321;SDS011;61553;48.994;8.940;2023-03-23T13:23:09;9.15;;;2.13;;
32321;SDS011;61553;48.994;8.940;2023-03-23T13:25:49;3.97;;;1.90;;
32321;SDS011;61553;48.994;8.940;2023-03-23T13:28:32;5.45;;;2.55;;
32321;SDS011;61553;48.994;8.940;2023-03-23T13:36:58;4.90;;;2.47;;
32321;SDS011;61553;48.994;8.940;2023-03-23T13:39:32;4.30;;;1.88;;
32321;SDS011;61553;48.994;8.940;2023-03-23T14:13:02;4.88;;;2.17;;
32321;SDS011;61553;48.994;8.940;2023-03-23T14:15:36;5.35;;;2.10;;
32321;SDS011;61553;48.994;8.940;2023-03-23T14:18:11;4.47;;;1.85;;
32321;SDS011;61553;48.994;8.940;2023-03-23T14:20:39;5.28;;;2.13;;
32321;SDS011;61553;48.994;8.940;2023-03-23T14:23:05;3.35;;;2.13;;
32321;SDS011;61553;48.994;8.940;2023-03-23T14:25:31;4.53;;;2.03;;
32321;SDS011;61553;48.994;8.940;2023-03-23T14:27:57;4.32;;;2.17;;
32321;SDS011;61553;48.994;8.940;2023-03-23T14:30:25;4.93;;;2.53;;
32321;SDS011;61553;48.994;8.940;2023-03-23T14:32:53;4.50;;;2.03;;
32321;SDS011;61553;48.994;8.940;2023-03-23T14:35:29;5.68;;;2.10;;
32321;SDS011;61553;48.994;8.940;2023-03-23T14:37:59;4.03;;;2.15;;
32321;SDS011;61553;48.994;8.940;2023-03-23T14:40:26;4.57;;;2.10;;
32321;SDS011;61553;48.994;8.940;2023-03-23T14:42:53;4.20;;;2.03;;
32321;SDS011;61553;48.994;8.940;2023-03-23T14:45:21;4.85;;;2.58;;
32321;SDS011;61553;48.994;8.940;2023-03-23T14:52:55;6.72;;;2.40;;
32321;SDS011;61553;48.994;8.940;2023-03-23T14:55:34;4.97;;;2.17;;
32321;SDS011;61553;48.994;8.940;2023-03-23T14:58:07;11.13;;;4.50;;
32321;SDS011;61553;48.994;8.940;2023-03-23T15:00:35;58.33;;;24.33;;
32321;SDS011;61553;48.994;8.940;2023-03-23T15:03:19;37.45;;;18.45;;
32321;SDS011;61553;48.994;8.940;2023-03-23T15:05:48;7.80;;;3.60;;
32321;SDS011;61553;48.994;8.940;2023-03-23T15:08:19;5.18;;;2.15;;
32321;SDS011;61553;48.994;8.940;2023-03-23T15:10:55;5.65;;;2.40;;
32321;SDS011;61553;48.994;8.940;2023-03-23T15:13:46;8.43;;;2.38;;
32321;SDS011;61553;48.994;8.940;2023-03-23T15:16:17;5.22;;;2.20;;
32321;SDS011;61553;48.994;8.940;2023-03-23T15:18:53;5.65;;;2.42;;
32321;SDS011;61553;48.994;8.940;2023-03-23T15:21:22;4.38;;;2.13;;
32321;SDS011;61553;48.994;8.940;2023-03-23T15:23:52;5.50;;;2.13;;
32321;SDS011;61553;48.994;8.940;2023-03-23T15:26:22;6.13;;;2.47;;
32321;SDS011;61553;48.994;8.940;2023-03-23T15:28:50;4.43;;;2.50;;
32321;SDS011;61553;48.994;8.940;2023-03-23T15:34:29;5.47;;;2.20;;
32321;SDS011;61553;48.994;8.940;2023-03-23T15:37:05;5.47;;;2.60;;
32321;SDS011;61553;48.994;8.940;2023-03-23T15:39:40;4.60;;;2.30;;
32321;SDS011;61553;48.994;8.940;2023-03-23T15:42:06;4.40;;;2.20;;
32321;SDS011;61553;48.994;8.940;2023-03-23T15:44:44;6.45;;;3.92;;
32321;SDS011;61553;48.994;8.940;2023-03-23T15:50:50;10.10;;;7.35;;
32321;SDS011;61553;48.994;8.940;2023-03-23T15:52:58;8.48;;;5.13;;
32321;SDS011;61553;48.994;8.940;2023-03-23T15:55:34;5.80;;;3.10;;
32321;SDS011;61553;48.994;8.940;2023-03-23T15:58:07;6.50;;;3.05;;
32321;SDS011;61553;48.994;8.940;2023-03-23T16:00:35;7.60;;;2.70;;
32321;SDS011;61553;48.994;8.940;2023-03-23T16:03:03;5.03;;;2.35;;
32321;SDS011;61553;48.994;8.940;2023-03-23T16:05:31;7.95;;;2.70;;
32321;SDS011;61553;48.994;8.940;2023-03-23T16:07:57;5.10;;;2.63;;
32321;SDS011;61553;48.994;8.940;2023-03-23T16:10:24;4.93;;;2.67;;
32321;SDS011;61553;48.994;8.940;2023-03-23T16:12:50;9.00;;;3.20;;
32321;SDS011;61553;48.994;8.940;2023-03-23T16:15:16;6.63;;;2.67;;
32321;SDS011;61553;48.994;8.940;2023-03-23T16:17:43;6.63;;;2.88;;
32321;SDS011;61553;48.994;8.940;2023-03-23T16:20:14;6.28;;;2.65;;
32321;SDS011;61553;48.994;8.940;2023-03-23T16:22:44;8.15;;;2.97;;
32321;SDS011;61553;48.994;8.940;2023-03-23T16:25:10;4.18;;;2.17;;
32321;SDS011;61553;48.994;8.940;2023-03-23T16:27:37;7.45;;;2.40;;
32321;SDS011;61553;48.994;8.940;2023-03-23T16:32:43;4.60;;;2.53;;
32321;SDS011;61553;48.994;8.940;2023-03-23T16:35:08;17.98;;;9.95;;
32321;SDS011;61553;48.994;8.940;2023-03-23T16:37:35;15.00;;;9.18;;
32321;SDS011;61553;48.994;8.940;2023-03-23T16:40:01;12.57;;;8.30;;
32321;SDS011;61553;48.994;8.940;2023-03-23T16:42:28;20.40;;;12.73;;
32321;SDS011;61553;48.994;8.940;2023-03-23T16:44:53;14.68;;;8.82;;
32321;SDS011;61553;48.994;8.940;2023-03-23T16:47:19;9.68;;;5.80;;
32321;SDS011;61553;48.994;8.940;2023-03-23T16:49:49;25.95;;;18.35;;
32321;SDS011;61553;48.994;8.940;2023-03-23T16:52:16;15.52;;;11.32;;
32321;SDS011;61553;48.994;8.940;2023-03-23T16:54:42;12.32;;;8.02;;
32321;SDS011;61553;48.994;8.940;2023-03-23T16:57:07;14.73;;;10.18;;
32321;SDS011;61553;48.994;8.940;2023-03-23T16:59:33;17.10;;;12.15;;
32321;SDS011;61553;48.994;8.940;2023-03-23T17:01:59;10.07;;;5.70;;
32321;SDS011;61553;48.994;8.940;2023-03-23T17:04:28;9.93;;;5.60;;
32321;SDS011;61553;48.994;8.940;2023-03-23T17:06:54;12.45;;;6.75;;
32321;SDS011;61553;48.994;8.940;2023-03-23T17:09:22;14.18;;;6.82;;
32321;SDS011;61553;48.994;8.940;2023-03-23T17:11:51;12.60;;;6.88;;
32321;SDS011;61553;48.994;8.940;2023-03-23T17:14:17;11.13;;;5.82;;
32321;SDS011;61553;48.994;8.940;2023-03-23T17:16:44;10.40;;;5.45;;
32321;SDS011;61553;48.994;8.940;2023-03-23T17:19:09;11.25;;;6.10;;
32321;SDS011;61553;48.994;8.940;2023-03-23T17:21:35;11.00;;;6.40;;
32321;SDS011;61553;48.994;8.940;2023-03-23T17:24:01;10.80;;;5.55;;
32321;SDS011;61553;48.994;8.940;2023-03-23T17:26:27;7.32;;;3.58;;
32321;SDS011;61553;48.994;8.940;2023-03-23T17:28:53;14.25;;;6.82;;